Time;durP1;ratioP1;P1;durP2;ratioP2;P2;SDS_P1;SDS_P2;PMS_P1;PMS_P2;Temp;Humidity;BMP_temperature;BMP_pressure;BME280_temperature;BME280_humidity;BME280_pressure;Samples;Min_cycle;Max_cycle;Signal;HPM_P1;HPM_P2
2021/04/02 00:01:32;;;;;;;26.70;20.43;;;5.10;99.90;;;;;;5099085;28;21062;-71
2021/04/02 00:03:59;;;;;;;23.83;21.47;;;5.10;99.90;;;;;;5095377;28;20469;-71
2021/04/02 00:06:25;;;;;;;23.30;20.93;;;5.10;99.90;;;;;;5093956;28;20465;-71
2021/04/02 00:08:52;;;;;;;26.67;22.67;;;5.00;99.90;;;;;;5096374;28;20823;-72
2021/04/02 00:11:18;;;;;;;23.70;20.67;;;5.00;99.90;;;;;;5099453;28;21148;-71
2021/04/02 00:13:46;;;;;;;22.10;19.80;;;5.00;99.90;;;;;;5099796;28;20457;-71
2021/04/02 00:16:15;;;;;;;24.50;21.40;;;5.00;99.90;;;;;;5101533;28;20453;-72
2021/04/02 00:18:44;;;;;;;21.93;19.63;;;4.90;99.90;;;;;;5105295;28;20550;-72
2021/04/02 00:21:13;;;;;;;24.50;22.00;;;4.80;99.90;;;;;;5099848;28;20497;-72
2021/04/02 00:23:39;;;;;;;25.33;22.27;;;4.80;99.90;;;;;;5103217;28;20827;-72
2021/04/02 00:26:07;;;;;;;33.23;21.20;;;4.70;99.90;;;;;;5103293;28;20469;-72
2021/04/02 00:28:34;;;;;;;25.40;20.70;;;4.80;99.90;;;;;;5100328;28;20461;-72
2021/04/02 00:31:02;;;;;;;27.00;21.70;;;4.70;99.90;;;;;;5101108;28;20568;-71
2021/04/02 00:33:31;;;;;;;23.80;20.47;;;4.80;99.90;;;;;;5104850;28;20464;-70
2021/04/02 00:35:57;;;;;;;22.57;20.17;;;4.80;99.90;;;;;;5101466;28;20465;-72
2021/04/02 00:38:24;;;;;;;24.30;21.07;;;4.80;99.90;;;;;;5099261;28;20454;-72
2021/04/02 00:40:54;;;;;;;29.77;22.37;;;4.70;99.90;;;;;;5102730;28;20464;-70
2021/04/02 00:43:24;;;;;;;29.47;22.93;;;4.70;99.90;;;;;;5098706;28;20462;-71
2021/04/02 00:45:50;;;;;;;25.53;22.97;;;4.70;99.90;;;;;;5101466;28;20462;-70
2021/04/02 00:48:17;;;;;;;27.10;23.07;;;4.60;99.90;;;;;;5100590;28;20457;-72
2021/04/02 00:50:47;;;;;;;24.37;21.23;;;4.60;99.90;;;;;;5094229;28;20516;-71
2021/04/02 00:53:13;;;;;;;23.13;20.70;;;4.70;99.90;;;;;;5102247;28;20461;-71
2021/04/02 00:55:41;;;;;;;24.50;21.10;;;4.60;99.90;;;;;;5099375;28;20457;-70
2021/04/02 00:58:10;;;;;;;29.43;22.27;;;4.50;99.90;;;;;;5101978;28;20461;-71
2021/04/02 01:00:37;;;;;;;23.83;21.10;;;4.50;99.90;;;;;;5100554;28;20461;-72
2021/04/02 01:03:05;;;;;;;24.53;21.90;;;4.40;99.90;;;;;;5104863;28;20569;-71
2021/04/02 01:05:34;;;;;;;24.20;21.63;;;4.40;99.90;;;;;;5103390;28;20460;-70
2021/04/02 01:08:03;;;;;;;24.23;21.83;;;4.20;99.90;;;;;;5096379;28;20526;-71
2021/04/02 01:10:30;;;;;;;25.60;22.83;;;4.30;99.90;;;;;;5103871;28;20959;-71
2021/04/02 01:12:58;;;;;;;24.30;21.70;;;4.30;99.90;;;;;;5098482;28;20535;-70
2021/04/02 01:15:33;;;;;;;30.30;21.77;;;4.20;99.90;;;;;;5095626;28;20473;-71
2021/04/02 01:18:07;;;;;;;24.53;22.13;;;4.20;99.90;;;;;;5099059;28;20868;-71
2021/04/02 01:20:35;;;;;;;26.13;21.43;;;4.10;99.90;;;;;;5100275;28;20457;-71
2021/04/02 01:23:07;;;;;;;27.40;22.23;;;4.10;99.90;;;;;;5100576;28;20500;-70
2021/04/02 01:25:44;;;;;;;23.73;21.23;;;4.10;99.90;;;;;;5096519;28;20836;-71
2021/04/02 01:28:27;;;;;;;24.33;21.80;;;4.10;99.90;;;;;;5102353;28;20481;-71
2021/04/02 01:30:56;;;;;;;29.23;21.70;;;4.10;99.90;;;;;;5096917;28;20462;-71
2021/04/02 01:33:24;;;;;;;26.47;23.50;;;3.90;99.90;;;;;;5098588;28;20461;-72
2021/04/02 01:35:50;;;;;;;24.80;22.30;;;3.90;99.90;;;;;;5098456;28;20471;-72
2021/04/02 01:38:21;;;;;;;23.87;21.53;;;4.00;99.90;;;;;;5102251;28;20999;-72
2021/04/02 01:40:50;;;;;;;28.90;23.10;;;3.90;99.90;;;;;;5100503;28;20462;-71
2021/04/02 01:43:21;;;;;;;25.57;22.90;;;3.80;99.90;;;;;;5103487;28;20469;-72
2021/04/02 01:45:48;;;;;;;27.30;21.70;;;3.80;99.90;;;;;;5102327;28;20464;-71
2021/04/02 01:48:16;;;;;;;26.40;21.67;;;3.90;99.90;;;;;;5099875;28;20473;-70
2021/04/02 01:50:46;;;;;;;27.37;23.07;;;3.70;99.90;;;;;;5091509;28;20467;-70
2021/04/02 01:53:14;;;;;;;25.07;22.37;;;3.70;99.90;;;;;;5098310;28;20468;-70
2021/04/02 01:55:41;;;;;;;25.30;22.60;;;3.60;99.90;;;;;;5099403;28;20485;-71
2021/04/02 01:58:09;;;;;;;25.37;22.23;;;3.70;99.90;;;;;;5098101;28;20493;-70
2021/04/02 02:00:39;;;;;;;23.77;21.27;;;3.70;99.90;;;;;;5102653;28;20453;-71
2021/04/02 02:03:07;;;;;;;24.50;19.20;;;3.70;99.90;;;;;;5097461;28;21019;-73
2021/04/02 02:05:35;;;;;;;26.10;23.07;;;3.60;99.90;;;;;;5095740;28;21048;-72
2021/04/02 02:08:03;;;;;;;28.93;23.37;;;3.60;99.90;;;;;;5097961;28;20469;-72
2021/04/02 02:10:31;;;;;;;25.13;22.53;;;3.70;99.90;;;;;;5101606;28;20533;-71
2021/04/02 02:13:00;;;;;;;25.57;23.17;;;3.60;99.90;;;;;;5098204;28;20468;-72
2021/04/02 02:15:27;;;;;;;26.07;23.47;;;3.60;99.90;;;;;;5092323;28;20455;-71
2021/04/02 02:17:57;;;;;;;36.80;23.00;;;3.60;99.90;;;;;;5097412;28;20967;-70
2021/04/02 02:20:27;;;;;;;24.00;21.30;;;3.50;99.90;;;;;;5101403;28;21011;-71
2021/04/02 02:22:55;;;;;;;30.57;24.30;;;3.60;99.90;;;;;;5101992;28;20493;-71
2021/04/02 02:25:24;;;;;;;24.70;22.17;;;3.70;99.90;;;;;;5096962;28;21016;-71
2021/04/02 02:27:51;;;;;;;25.03;20.17;;;3.90;99.90;;;;;;5095540;28;20462;-71
2021/04/02 02:30:20;;;;;;;25.40;22.70;;;3.90;99.90;;;;;;5098013;28;20468;-73
2021/04/02 02:32:46;;;;;;;25.47;22.80;;;4.10;99.90;;;;;;5096608;28;20512;-71
2021/04/02 02:35:14;;;;;;;25.83;22.63;;;4.10;99.90;;;;;;5099957;28;20471;-72
2021/04/02 02:37:42;;;;;;;25.93;23.00;;;4.30;99.90;;;;;;5097133;28;20457;-71
2021/04/02 02:40:13;;;;;;;25.23;22.53;;;4.30;99.90;;;;;;5100332;28;20462;-70
2021/04/02 02:42:39;;;;;;;24.57;22.00;;;4.40;99.90;;;;;;5095811;28;20491;-72
2021/04/02 02:45:07;;;;;;;24.53;22.23;;;4.60;99.90;;;;;;5095407;28;20465;-71
2021/04/02 02:47:34;;;;;;;27.73;23.47;;;4.70;99.90;;;;;;5090243;28;20458;-71
2021/04/02 02:50:02;;;;;;;25.30;22.70;;;4.80;99.90;;;;;;5099420;28;20458;-71
2021/04/02 02:52:28;;;;;;;25.37;22.70;;;4.80;99.90;;;;;;5098784;28;20526;-72
2021/04/02 02:54:56;;;;;;;23.97;21.73;;;4.80;99.90;;;;;;5096359;28;20963;-72
2021/04/02 02:57:25;;;;;;;24.73;22.43;;;4.90;99.90;;;;;;5097211;28;20465;-71
2021/04/02 02:59:53;;;;;;;25.50;22.27;;;5.00;99.90;;;;;;5098297;28;20484;-70
2021/04/02 03:02:20;;;;;;;25.40;23.03;;;5.00;99.90;;;;;;5091591;28;20489;-72
2021/04/02 03:04:48;;;;;;;25.70;21.63;;;5.00;99.90;;;;;;5096953;28;20459;-70
2021/04/02 03:07:15;;;;;;;33.43;23.00;;;5.00;99.90;;;;;;5089562;28;20465;-71
2021/04/02 03:09:45;;;;;;;22.30;20.20;;;5.00;99.90;;;;;;5096342;28;20451;-71
2021/04/02 03:12:14;;;;;;;24.10;21.40;;;5.00;99.90;;;;;;5099144;28;20515;-72
2021/04/02 03:14:43;;;;;;;23.30;21.00;;;5.00;99.90;;;;;;5098911;28;20901;-71
2021/04/02 03:17:10;;;;;;;28.47;20.47;;;5.00;99.90;;;;;;5087909;28;20457;-70
2021/04/02 03:19:38;;;;;;;30.20;21.03;;;5.00;99.90;;;;;;5097476;28;20465;-72
2021/04/02 03:22:07;;;;;;;22.77;20.53;;;4.90;99.90;;;;;;5096277;28;20524;-71
2021/04/02 03:24:36;;;;;;;23.43;20.83;;;5.00;99.90;;;;;;5100327;28;20518;-71
2021/04/02 03:27:03;;;;;;;21.53;19.60;;;5.00;99.90;;;;;;5098002;28;20449;-72
2021/04/02 03:29:31;;;;;;;22.07;19.73;;;4.90;99.90;;;;;;5098356;28;20560;-71
2021/04/02 03:32:03;;;;;;;21.33;19.17;;;4.90;99.90;;;;;;5081928;28;20482;-72
2021/04/02 03:34:31;;;;;;;22.33;20.03;;;4.90;99.90;;;;;;5099568;28;20463;-71
2021/04/02 03:36:59;;;;;;;23.10;20.50;;;5.10;99.90;;;;;;5095853;28;20474;-71
2021/04/02 03:39:29;;;;;;;21.20;19.27;;;5.10;99.90;;;;;;5098043;28;20502;-70
2021/04/02 03:42:01;;;;;;;24.17;21.33;;;5.10;99.90;;;;;;5100359;28;20489;-71
2021/04/02 03:44:31;;;;;;;22.17;20.20;;;5.10;99.90;;;;;;5092643;28;20450;-71
2021/04/02 03:47:01;;;;;;;22.20;20.20;;;5.10;99.90;;;;;;5088220;28;20462;-71
2021/04/02 03:49:33;;;;;;;25.70;21.87;;;5.20;99.90;;;;;;5101319;28;20484;-71
2021/04/02 03:52:09;;;;;;;24.37;19.43;;;5.20;99.90;;;;;;5095187;28;20449;-71
2021/04/02 03:54:37;;;;;;;36.67;20.63;;;5.30;99.90;;;;;;5095907;28;20461;-71
2021/04/02 03:57:06;;;;;;;19.93;17.93;;;5.30;99.90;;;;;;5097000;28;20454;-71
2021/04/02 03:59:36;;;;;;;21.13;19.10;;;5.30;99.90;;;;;;5096778;28;20864;-71
2021/04/02 04:02:05;;;;;;;20.43;18.63;;;5.40;99.90;;;;;;5097295;28;20493;-71
2021/04/02 04:04:32;;;;;;;21.87;19.67;;;5.40;99.90;;;;;;5101576;28;20465;-71
2021/04/02 04:07:01;;;;;;;21.63;19.40;;;5.50;99.90;;;;;;5089713;28;20467;-71
2021/04/02 04:09:31;;;;;;;21.10;18.60;;;5.50;99.90;;;;;;5096070;28;20482;-71
2021/04/02 04:12:00;;;;;;;21.70;17.87;;;5.40;99.90;;;;;;5097613;28;20462;-71
2021/04/02 04:14:29;;;;;;;20.00;17.93;;;5.40;99.90;;;;;;5094021;28;20486;-70
2021/04/02 04:16:58;;;;;;;25.43;18.20;;;5.50;99.90;;;;;;5095265;28;20465;-72
2021/04/02 04:19:29;;;;;;;23.53;18.63;;;5.30;99.90;;;;;;5100148;28;21179;-71
2021/04/02 04:21:57;;;;;;;20.80;18.17;;;5.30;99.90;;;;;;5100872;28;20473;-71
2021/04/02 04:24:26;;;;;;;20.70;18.70;;;5.30;99.90;;;;;;5095998;28;20467;-71
2021/04/02 04:26:55;;;;;;;23.83;20.10;;;5.40;99.90;;;;;;5100643;28;20487;-72
2021/04/02 04:29:24;;;;;;;22.30;20.10;;;5.40;99.90;;;;;;5092065;28;20903;-71
2021/04/02 04:31:52;;;;;;;22.97;20.80;;;5.40;99.90;;;;;;5094355;28;20488;-71
2021/04/02 04:34:21;;;;;;;25.57;21.27;;;5.40;99.90;;;;;;5105138;28;20460;-70
2021/04/02 04:36:51;;;;;;;27.27;20.43;;;5.30;99.90;;;;;;5095283;28;20466;-71
2021/04/02 04:39:17;;;;;;;24.83;20.43;;;5.20;99.90;;;;;;5095582;28;20457;-71
2021/04/02 04:41:45;;;;;;;25.43;20.77;;;5.20;99.90;;;;;;5099508;28;20485;-72
2021/04/02 04:44:13;;;;;;;21.77;19.23;;;5.20;99.90;;;;;;5086714;28;20469;-70
2021/04/02 04:46:40;;;;;;;22.50;20.20;;;5.20;99.90;;;;;;5098602;28;20465;-70
2021/04/02 04:49:06;;;;;;;25.43;19.60;;;5.20;99.90;;;;;;5094863;28;20489;-70
2021/04/02 04:51:35;;;;;;;26.97;21.43;;;5.00;99.90;;;;;;5093656;28;20458;-72
2021/04/02 04:54:03;;;;;;;29.33;20.50;;;5.10;99.90;;;;;;5095780;28;20457;-72
2021/04/02 04:56:31;;;;;;;24.80;21.00;;;5.10;99.90;;;;;;5097056;28;20526;-71
2021/04/02 04:59:01;;;;;;;29.83;20.73;;;5.10;99.90;;;;;;5103227;28;20523;-71
2021/04/02 05:01:30;;;;;;;22.67;20.10;;;5.20;99.90;;;;;;5099365;28;20481;-72
2021/04/02 05:03:58;;;;;;;22.30;19.70;;;5.30;99.90;;;;;;5105234;28;20467;-71
2021/04/02 05:06:26;;;;;;;25.40;18.37;;;5.20;99.90;;;;;;5102092;28;20457;-71
2021/04/02 05:08:54;;;;;;;23.43;20.50;;;5.00;99.90;;;;;;5101542;28;20475;-72
2021/04/02 05:11:24;;;;;;;23.00;20.60;;;4.90;99.90;;;;;;5101953;28;20469;-71
2021/04/02 05:13:52;;;;;;;25.47;19.17;;;5.00;99.90;;;;;;5098629;28;20976;-72
2021/04/02 05:16:21;;;;;;;24.27;20.60;;;5.00;99.90;;;;;;5099697;28;20470;-71
2021/04/02 05:18:48;;;;;;;18.47;16.87;;;4.90;99.90;;;;;;5102611;28;20827;-70
2021/04/02 05:21:15;;;;;;;17.07;15.37;;;4.90;99.90;;;;;;5105342;28;20460;-72
2021/04/02 05:23:42;;;;;;;24.57;19.43;;;4.80;99.90;;;;;;5100663;28;20471;-70
2021/04/02 05:26:12;;;;;;;25.07;20.93;;;4.70;99.90;;;;;;5097437;28;20474;-71
2021/04/02 05:28:40;;;;;;;31.40;21.70;;;4.70;99.90;;;;;;5097057;28;20459;-71
2021/04/02 05:31:07;;;;;;;27.70;22.70;;;4.90;99.90;;;;;;5093784;28;20473;-70
2021/04/02 05:33:33;;;;;;;33.93;21.90;;;4.90;99.90;;;;;;5097234;28;20574;-71
2021/04/02 05:36:00;;;;;;;25.20;22.53;;;5.10;99.90;;;;;;5105564;28;20457;-71
2021/04/02 05:38:27;;;;;;;28.67;23.37;;;5.10;99.90;;;;;;5099787;28;20457;-72
2021/04/02 05:40:54;;;;;;;32.13;25.07;;;5.10;99.90;;;;;;5097790;28;20457;-72
2021/04/02 05:43:28;;;;;;;24.40;20.53;;;5.10;99.90;;;;;;5098344;28;20492;-70
2021/04/02 05:45:58;;;;;;;29.90;24.93;;;5.10;99.90;;;;;;5098745;28;20815;-71
2021/04/02 05:48:26;;;;;;;33.23;23.67;;;5.10;99.90;;;;;;5100846;28;20580;-71
2021/04/02 05:50:55;;;;;;;27.50;23.63;;;5.20;99.90;;;;;;5096496;28;20507;-72
2021/04/02 05:53:24;;;;;;;34.13;24.87;;;5.20;99.90;;;;;;5095010;28;20453;-71
2021/04/02 05:55:53;;;;;;;33.67;22.43;;;5.20;99.90;;;;;;5094392;28;20465;-70
2021/04/02 05:58:20;;;;;;;38.47;25.60;;;5.20;99.90;;;;;;5098382;28;20469;-71
2021/04/02 06:00:47;;;;;;;43.60;27.30;;;5.20;99.90;;;;;;5099495;28;20470;-71
2021/04/02 06:03:17;;;;;;;60.87;32.37;;;5.20;99.90;;;;;;5098730;28;20537;-71
2021/04/02 06:05:44;;;;;;;67.73;34.80;;;5.30;99.90;;;;;;5099119;28;20775;-71
2021/04/02 06:08:11;;;;;;;97.37;45.07;;;5.30;99.90;;;;;;5105590;28;20544;-72
2021/04/02 06:10:37;;;;;;;100.83;47.20;;;5.30;99.90;;;;;;5097206;28;20461;-71
2021/04/02 06:13:03;;;;;;;87.70;45.30;;;5.20;99.90;;;;;;5098761;28;20464;-71
2021/04/02 06:15:32;;;;;;;109.00;52.00;;;5.30;99.90;;;;;;5095957;28;20483;-72
2021/04/02 06:18:00;;;;;;;110.97;50.37;;;5.30;99.90;;;;;;5101957;28;20488;-71
2021/04/02 06:20:31;;;;;;;98.07;49.53;;;5.20;99.90;;;;;;5102351;28;20457;-71
2021/04/02 06:23:05;;;;;;;95.90;47.70;;;5.20;99.90;;;;;;5097735;28;21256;-70
2021/04/02 06:25:32;;;;;;;96.07;48.40;;;5.30;99.90;;;;;;5099875;28;20468;-71
2021/04/02 06:27:59;;;;;;;94.43;47.90;;;5.30;99.90;;;;;;5097505;28;20466;-70
2021/04/02 06:30:28;;;;;;;89.23;47.00;;;5.40;99.90;;;;;;5098327;28;20494;-70
2021/04/02 06:32:55;;;;;;;88.33;45.80;;;5.50;99.90;;;;;;5098817;28;20480;-71
2021/04/02 06:35:27;;;;;;;82.80;44.90;;;5.60;99.90;;;;;;5103612;28;20484;-71
2021/04/02 06:37:57;;;;;;;91.27;43.80;;;5.80;99.90;;;;;;5096395;28;20557;-72
2021/04/02 06:40:25;;;;;;;78.83;46.17;;;5.70;99.90;;;;;;5094587;28;20460;-71
2021/04/02 06:42:51;;;;;;;74.80;46.00;;;5.90;99.90;;;;;;5094629;28;20485;-71
2021/04/02 06:45:19;;;;;;;89.10;48.00;;;6.00;99.90;;;;;;5096578;28;20449;-72
2021/04/02 06:47:46;;;;;;;85.73;48.87;;;6.00;99.90;;;;;;5096151;28;20971;-71
2021/04/02 06:50:21;;;;;;;76.10;45.27;;;6.10;99.90;;;;;;5097942;28;20469;-71
2021/04/02 06:52:50;;;;;;;87.60;44.80;;;6.30;99.90;;;;;;5098242;28;21047;-71
2021/04/02 06:55:18;;;;;;;77.93;42.90;;;6.10;99.90;;;;;;5094750;28;20459;-71
2021/04/02 06:57:48;;;;;;;77.50;46.40;;;6.40;99.90;;;;;;5100199;28;20827;-72
2021/04/02 07:00:19;;;;;;;72.77;45.63;;;6.50;99.90;;;;;;5096600;28;20459;-71
2021/04/02 07:02:47;;;;;;;77.37;48.37;;;6.60;99.90;;;;;;5085241;28;21012;-72
2021/04/02 07:05:17;;;;;;;77.50;46.63;;;6.80;99.90;;;;;;5089644;28;20475;-73
2021/04/02 07:07:45;;;;;;;83.10;44.40;;;6.90;99.90;;;;;;5089090;28;20458;-73
2021/04/02 07:10:12;;;;;;;86.97;49.43;;;6.90;99.90;;;;;;5096932;28;20470;-72
2021/04/02 07:12:45;;;;;;;75.87;47.20;;;6.90;99.90;;;;;;5102865;28;20508;-72
2021/04/02 07:15:14;;;;;;;68.83;45.47;;;7.00;99.90;;;;;;5090602;28;20513;-73
2021/04/02 07:17:41;;;;;;;66.30;43.07;;;7.00;99.90;;;;;;5094752;28;20471;-72
2021/04/02 07:20:08;;;;;;;63.87;43.13;;;7.00;99.90;;;;;;5095136;28;21055;-72
2021/04/02 07:22:36;;;;;;;83.53;44.33;;;7.10;99.90;;;;;;5091090;28;20801;-73
2021/04/02 07:25:04;;;;;;;67.33;39.77;;;7.00;99.90;;;;;;5090238;28;20651;-72
2021/04/02 07:27:31;;;;;;;68.53;44.90;;;7.10;99.90;;;;;;5094307;28;20465;-71
2021/04/02 07:29:58;;;;;;;113.33;61.83;;;7.20;99.90;;;;;;5095468;28;20467;-72
2021/04/02 07:32:26;;;;;;;70.07;43.10;;;7.30;99.90;;;;;;5088724;28;20494;-72
2021/04/02 07:34:52;;;;;;;68.40;46.30;;;7.40;99.90;;;;;;5093547;28;20465;-73
2021/04/02 07:37:19;;;;;;;67.57;41.20;;;7.40;99.90;;;;;;5091656;28;20471;-72
2021/04/02 07:39:47;;;;;;;63.63;40.97;;;7.50;99.90;;;;;;5091939;28;20463;-71
2021/04/02 07:42:14;;;;;;;56.80;32.87;;;7.20;99.90;;;;;;5091446;28;20491;-70
2021/04/02 07:44:47;;;;;;;56.77;34.00;;;7.10;99.90;;;;;;5084532;28;20820;-69
2021/04/02 07:47:15;;;;;;;56.53;33.30;;;7.00;99.90;;;;;;5080012;28;20467;-71
2021/04/02 07:49:54;;;;;;;54.80;34.73;;;7.00;99.90;;;;;;5094745;28;20463;-72
2021/04/02 07:52:30;;;;;;;58.10;35.80;;;7.20;99.90;;;;;;5096912;28;20456;-71
2021/04/02 07:55:09;;;;;;;51.93;36.43;;;7.60;99.90;;;;;;5098417;28;20464;-71
2021/04/02 07:57:55;;;;;;;60.40;38.47;;;7.70;99.90;;;;;;5091343;28;20466;-70
2021/04/02 08:00:24;;;;;;;56.80;36.50;;;7.90;99.90;;;;;;5092610;28;20453;-70
2021/04/02 08:03:12;;;;;;;67.23;42.03;;;8.10;99.90;;;;;;5094743;28;20514;-71
2021/04/02 08:05:44;;;;;;;56.50;39.20;;;8.00;99.90;;;;;;5091170;28;20483;-71
2021/04/02 08:08:14;;;;;;;62.40;43.10;;;7.90;99.90;;;;;;5086202;28;20454;-70
2021/04/02 08:10:59;;;;;;;59.23;41.73;;;8.00;99.90;;;;;;5090020;28;20840;-71
2021/04/02 08:13:26;;;;;;;60.07;39.27;;;8.10;99.90;;;;;;5088733;28;20493;-70
2021/04/02 08:15:53;;;;;;;56.13;36.40;;;8.00;99.90;;;;;;5083522;28;20461;-70
2021/04/02 08:18:21;;;;;;;70.33;39.90;;;7.90;99.90;;;;;;5087685;28;20882;-70
2021/04/02 08:20:55;;;;;;;55.23;38.90;;;7.90;99.90;;;;;;5088530;28;20464;-71
2021/04/02 08:23:25;;;;;;;57.17;36.53;;;8.00;99.90;;;;;;5095528;28;20496;-71
2021/04/02 08:25:54;;;;;;;56.37;37.33;;;8.00;99.90;;;;;;5093308;28;20480;-70
2021/04/02 08:28:24;;;;;;;57.27;37.87;;;8.30;99.90;;;;;;5088389;28;20462;-71
2021/04/02 08:30:51;;;;;;;56.97;38.40;;;8.50;99.90;;;;;;5071790;28;20501;-70
2021/04/02 08:33:18;;;;;;;48.70;36.13;;;8.50;99.90;;;;;;5086906;28;20456;-71
2021/04/02 08:35:46;;;;;;;40.33;32.20;;;8.50;99.90;;;;;;5080800;28;20470;-72
2021/04/02 08:38:13;;;;;;;47.13;33.60;;;8.80;99.90;;;;;;5080662;28;20621;-70
2021/04/02 08:40:40;;;;;;;48.77;32.07;;;8.80;99.90;;;;;;5083222;28;20461;-71
2021/04/02 08:43:08;;;;;;;40.00;30.30;;;9.00;99.90;;;;;;5082703;28;20489;-71
2021/04/02 08:45:36;;;;;;;34.03;28.13;;;8.90;99.90;;;;;;5078904;28;20465;-71
2021/04/02 08:48:03;;;;;;;40.77;30.17;;;8.70;99.90;;;;;;5072839;28;20561;-71
2021/04/02 08:50:29;;;;;;;37.53;29.47;;;8.40;99.90;;;;;;5068631;28;20457;-71
2021/04/02 08:53:15;;;;;;;40.30;30.80;;;8.50;99.90;;;;;;5092820;28;20476;-70
2021/04/02 08:55:43;;;;;;;33.63;29.63;;;8.50;99.90;;;;;;5079224;28;20718;-71
2021/04/02 08:58:11;;;;;;;41.27;27.00;;;8.20;99.90;;;;;;5088404;28;20464;-71
2021/04/02 09:00:37;;;;;;;39.63;31.20;;;8.80;99.90;;;;;;5090988;28;20456;-71
2021/04/02 09:03:06;;;;;;;42.13;32.03;;;9.00;99.90;;;;;;5088582;28;20895;-70
2021/04/02 09:05:33;;;;;;;42.80;32.13;;;8.40;99.90;;;;;;5085945;28;20507;-72
2021/04/02 09:08:00;;;;;;;31.00;24.70;;;8.70;99.90;;;;;;5087571;28;20460;-71
2021/04/02 09:10:28;;;;;;;35.77;28.03;;;8.40;99.90;;;;;;5086429;28;20468;-70
2021/04/02 09:12:55;;;;;;;31.63;25.53;;;7.80;99.90;;;;;;5086432;28;20524;-71
2021/04/02 09:15:23;;;;;;;32.70;25.90;;;7.70;99.90;;;;;;5088803;28;20458;-71
2021/04/02 09:17:50;;;;;;;31.63;26.63;;;7.60;99.90;;;;;;5083590;28;20466;-72
2021/04/02 09:20:18;;;;;;;39.10;28.33;;;7.50;99.90;;;;;;5086446;28;20468;-71
2021/04/02 09:22:46;;;;;;;27.33;23.87;;;7.50;99.90;;;;;;5090351;28;20490;-72
2021/04/02 09:25:16;;;;;;;26.90;23.60;;;7.80;99.90;;;;;;5086733;28;21033;-71
2021/04/02 09:27:43;;;;;;;26.83;23.03;;;7.90;99.90;;;;;;5087522;28;20466;-72
2021/04/02 09:30:23;;;;;;;25.20;20.60;;;7.70;99.90;;;;;;5088219;28;20464;-71
2021/04/02 09:32:50;;;;;;;22.00;17.47;;;7.50;99.90;;;;;;5087545;28;20486;-71
2021/04/02 09:35:17;;;;;;;21.10;18.80;;;7.20;99.90;;;;;;5088705;28;20465;-71
2021/04/02 09:37:44;;;;;;;21.90;19.43;;;7.00;99.90;;;;;;5086719;28;20461;-71
2021/04/02 09:40:11;;;;;;;24.53;20.37;;;7.00;99.90;;;;;;5087156;28;20485;-71
2021/04/02 09:42:38;;;;;;;17.83;16.43;;;7.20;99.90;;;;;;5085271;28;20827;-71
2021/04/02 09:45:08;;;;;;;24.00;21.47;;;7.20;99.90;;;;;;5093280;28;20466;-71
2021/04/02 09:47:42;;;;;;;26.63;20.50;;;7.10;99.90;;;;;;5090845;28;20477;-72
2021/04/02 09:50:10;;;;;;;25.83;22.77;;;7.10;99.90;;;;;;5094158;28;20877;-71
2021/04/02 09:52:39;;;;;;;34.47;25.07;;;7.20;99.90;;;;;;5093998;28;20548;-71
2021/04/02 09:55:07;;;;;;;28.30;25.00;;;7.40;99.90;;;;;;5090664;28;20461;-71
2021/04/02 09:57:33;;;;;;;35.70;25.83;;;7.50;99.90;;;;;;5094533;28;20466;-69
2021/04/02 10:00:00;;;;;;;27.30;23.07;;;7.30;99.90;;;;;;5102844;28;20995;-71
2021/04/02 10:02:27;;;;;;;24.90;19.77;;;7.50;99.90;;;;;;5093219;28;20840;-70
2021/04/02 10:04:54;;;;;;;22.80;20.33;;;7.60;99.90;;;;;;5102787;28;20810;-71
2021/04/02 10:07:20;;;;;;;33.67;23.10;;;7.50;99.90;;;;;;5099686;28;20468;-71
2021/04/02 10:09:48;;;;;;;30.43;23.27;;;7.80;99.90;;;;;;5090761;28;20511;-71
2021/04/02 10:12:15;;;;;;;23.03;20.30;;;8.10;99.90;;;;;;5094120;28;20463;-71
2021/04/02 10:14:41;;;;;;;27.30;23.83;;;8.00;99.90;;;;;;5098375;28;20460;-71
2021/04/02 10:17:10;;;;;;;31.20;23.17;;;7.50;99.90;;;;;;5097610;28;20458;-71
2021/04/02 10:19:37;;;;;;;31.00;23.83;;;7.60;99.90;;;;;;5097506;28;20485;-71
2021/04/02 10:22:04;;;;;;;36.70;26.67;;;7.60;99.90;;;;;;5091321;28;20534;-70
2021/04/02 10:24:31;;;;;;;46.10;27.03;;;7.60;99.90;;;;;;5091934;28;20457;-70
2021/04/02 10:26:59;;;;;;;39.30;29.13;;;7.50;99.90;;;;;;5090837;28;20880;-70
2021/04/02 10:29:26;;;;;;;38.43;24.63;;;7.60;99.90;;;;;;5095722;28;20458;-71
2021/04/02 10:31:52;;;;;;;38.20;26.80;;;7.90;99.90;;;;;;5097727;28;20565;-71
2021/04/02 10:34:19;;;;;;;29.67;23.53;;;8.30;99.90;;;;;;5090216;28;20471;-71
2021/04/02 10:36:46;;;;;;;26.20;23.50;;;8.60;99.90;;;;;;5094982;28;20462;-71
2021/04/02 10:39:12;;;;;;;28.03;23.90;;;8.20;99.90;;;;;;5097690;28;20459;-70
2021/04/02 10:41:39;;;;;;;26.10;23.20;;;8.60;99.90;;;;;;5098739;28;20455;-71
2021/04/02 10:44:07;;;;;;;33.73;23.67;;;8.90;99.90;;;;;;5100721;28;20460;-71
2021/04/02 10:46:33;;;;;;;30.00;22.83;;;8.90;99.90;;;;;;5095094;28;20462;-70
2021/04/02 10:49:00;;;;;;;30.90;22.87;;;8.50;99.90;;;;;;5093301;28;20464;-71
2021/04/02 10:51:27;;;;;;;27.93;22.70;;;7.90;99.90;;;;;;5099160;28;20494;-70
2021/04/02 10:54:00;;;;;;;23.80;20.43;;;7.90;99.90;;;;;;5095219;28;20462;-70
2021/04/02 10:56:28;;;;;;;20.97;18.80;;;7.70;99.90;;;;;;5093335;28;20828;-71
2021/04/02 10:58:55;;;;;;;24.27;18.67;;;7.70;99.90;;;;;;5089833;28;20875;-70
2021/04/02 11:01:22;;;;;;;20.70;18.67;;;7.50;99.90;;;;;;5096136;28;20463;-70
2021/04/02 11:03:49;;;;;;;22.70;16.83;;;7.20;99.90;;;;;;5095006;28;20588;-70
2021/04/02 11:06:15;;;;;;;20.37;17.93;;;7.10;99.90;;;;;;5098234;28;20502;-70
2021/04/02 11:08:42;;;;;;;20.07;18.20;;;7.30;99.90;;;;;;5102793;28;20462;-71
2021/04/02 11:11:10;;;;;;;18.87;17.30;;;7.20;99.90;;;;;;5089079;28;20498;-71
2021/04/02 11:13:36;;;;;;;18.90;17.03;;;7.50;99.90;;;;;;5089511;28;20503;-71
2021/04/02 11:16:03;;;;;;;17.57;15.80;;;7.60;99.90;;;;;;5092103;28;20837;-71
2021/04/02 11:18:30;;;;;;;15.70;14.20;;;7.60;99.90;;;;;;5095060;28;20464;-70
2021/04/02 11:20:56;;;;;;;14.90;13.40;;;7.70;99.90;;;;;;5097252;28;20548;-70
2021/04/02 11:23:23;;;;;;;17.03;15.53;;;7.80;99.90;;;;;;5097782;28;20482;-70
2021/04/02 11:25:49;;;;;;;14.30;13.30;;;7.90;99.90;;;;;;5090868;28;20489;-70
2021/04/02 11:28:17;;;;;;;17.00;15.43;;;7.70;99.90;;;;;;5092200;28;20462;-71
2021/04/02 11:30:44;;;;;;;14.30;13.30;;;7.80;99.90;;;;;;5091506;28;20483;-70
2021/04/02 11:33:10;;;;;;;14.47;13.13;;;8.10;99.90;;;;;;5095397;28;20466;-71
2021/04/02 11:35:36;;;;;;;16.70;15.30;;;8.10;99.90;;;;;;5093035;28;20459;-70
2021/04/02 11:38:04;;;;;;;13.77;12.83;;;8.00;99.90;;;;;;5094307;28;20555;-70
2021/04/02 11:40:31;;;;;;;13.57;12.60;;;8.10;99.90;;;;;;5092354;28;20957;-70
2021/04/02 11:42:57;;;;;;;13.70;12.60;;;7.80;99.90;;;;;;5094394;28;20585;-71
2021/04/02 11:45:25;;;;;;;12.90;12.17;;;7.40;99.90;;;;;;5089989;28;20966;-70
2021/04/02 11:47:52;;;;;;;12.87;11.87;;;7.30;99.90;;;;;;5089837;28;20859;-70
2021/04/02 11:50:21;;;;;;;14.27;12.97;;;7.30;99.90;;;;;;5090694;28;20465;-70
2021/04/02 11:52:47;;;;;;;13.70;12.53;;;7.40;99.90;;;;;;5083278;28;20459;-70
2021/04/02 11:55:14;;;;;;;13.10;12.20;;;7.30;99.90;;;;;;5087618;28;20550;-71
2021/04/02 11:57:41;;;;;;;12.97;11.50;;;7.40;99.90;;;;;;5084810;28;20473;-70
2021/04/02 12:00:10;;;;;;;10.10;9.50;;;7.20;99.90;;;;;;5084412;28;20459;-70
2021/04/02 12:02:37;;;;;;;12.27;11.50;;;7.00;99.90;;;;;;5088930;28;21020;-71
2021/04/02 12:05:05;;;;;;;14.60;13.50;;;7.00;99.90;;;;;;5094178;28;20460;-71
2021/04/02 12:07:31;;;;;;;20.03;13.83;;;7.00;99.90;;;;;;5087781;28;20561;-70
2021/04/02 12:09:59;;;;;;;13.57;12.47;;;7.00;99.90;;;;;;5090372;28;20463;-71
2021/04/02 12:12:27;;;;;;;14.13;12.90;;;7.10;99.90;;;;;;5088274;28;20513;-70
2021/04/02 12:14:53;;;;;;;16.57;14.60;;;7.10;99.90;;;;;;5088692;28;20812;-71
2021/04/02 12:17:19;;;;;;;14.70;13.00;;;7.40;99.90;;;;;;5093302;28;20460;-70
2021/04/02 12:19:46;;;;;;;15.23;13.90;;;7.80;99.90;;;;;;5093771;28;20971;-70
2021/04/02 12:22:13;;;;;;;15.50;13.50;;;8.00;99.90;;;;;;5086944;28;20488;-71
2021/04/02 12:24:40;;;;;;;15.23;14.03;;;8.30;99.90;;;;;;5092597;28;20458;-71
2021/04/02 12:27:07;;;;;;;14.63;13.43;;;8.40;99.90;;;;;;5095487;28;20564;-71
2021/04/02 12:29:33;;;;;;;14.60;13.40;;;8.60;99.90;;;;;;5085139;28;20465;-71
2021/04/02 12:32:00;;;;;;;15.43;14.17;;;8.90;99.90;;;;;;5090402;28;21292;-71
2021/04/02 12:34:26;;;;;;;13.80;12.83;;;8.80;99.90;;;;;;5084175;28;21028;-73
2021/04/02 12:36:54;;;;;;;16.47;13.33;;;8.80;99.90;;;;;;5090682;28;20461;-72
2021/04/02 12:39:20;;;;;;;15.20;14.00;;;8.80;99.90;;;;;;5098827;28;21057;-73
2021/04/02 12:41:46;;;;;;;12.20;11.50;;;9.00;99.90;;;;;;5098789;28;20460;-70